Terminal Aerodrome Forecast
Issued by NWS

Home | Current Version | Previous Version | Text Only | Print | Product List | Glossary On
Versions: 1 2 3 4 5 6 7 8 9 10 11 12 13 14 15 16 17 18 19 20 21 22 23 24 25
000
FTUS41 KRLX 170900 AAD
TAFCKB
TAF AMD
KCKB 170900Z 1709/1806 00000KT P6SM OVC080
     FM171000 15004KT 3SM -SHRA BR OVC060
     FM171600 20009G15KT 5SM -SHRA OVC025
     FM172200 23010G16KT 5SM -SHRA OVC015
     FM180200 25008KT P6SM BKN015=

USA.gov is the U.S. government's official web portal to all federal, state and local government web resources and services.